• Join FlightAware (Why Join?)
  • Login
  • US Flag 
06:57AM EDT


 

Airport Tracker/Info


-or-


 

Live Flight TrackerFlight Track Log ✈ EGF3153 ✈ 06-Oct-2013 ✈ KORD - KCWA

Flight Track Log - Related Links

Times and Time Zones

All times are in EDT time to prevent confusion due to time zone crossing. See the EGF3153 flight status page for this flight to view local times or setup timezone preferences in your user account.

Time Position Orientation Groundspeed Altitude Reporting Facility
EDT Latitude Longitude Course Direction KTS MPH feet Rate Location/Type
08:51PM 42.0444 -87.9903 346° North 201 231 3,800  Level Chicago Center
08:51PM 42.0833 -88.0167 333° Northwest 244 281 4,900 600 Climbing Chicago TRACON
08:53PM 42.3496 -88.1283 346° North  Level Estimated
08:53PM 42.1806 -88.0153 North 264 304 5,100  Level Chicago Center
08:54PM 42.4416 -88.1842 346° North  Level Estimated
08:54PM 42.2569 -88.0128 North 272 313 7,300  Level Chicago Center
08:55PM 42.5421 -88.1935 356° North  Level FlightAware Approximate
08:55PM 42.3417 -88.0156 359° North 282 325 9,500  Level Chicago Center
08:56PM 42.6334 -88.2514 346° North  Level Estimated
08:56PM 42.4297 -88.0169 359° North 311 358 11,500  Level Chicago Center
08:57PM 42.5378 -88.0353 353° North 330 380 14,100 1,920 Climbing Chicago Center
08:58PM 42.6256 -88.0814 339° North 338 389 15,500 1,260 Climbing Chicago Center
08:59PM 42.7122 -88.1475 331° Northwest 355 409 16,800 1,260 Climbing Chicago Center
09:00PM 42.8067 -88.2131 333° Northwest 376 433 18,200 1,200 Climbing Chicago Center
09:01PM 42.9033 -88.2825 332° Northwest 390 449 19,400 1,260 Climbing Chicago Center
09:02PM 43.0239 -88.3683 333° Northwest 404 465 20,900 1,200 Climbing Chicago Center
09:03PM 43.1272 -88.4428 332° Northwest 415 478 22,000 480 Climbing Chicago Center
09:04PM 43.2347 -88.5206 332° Northwest 428 493 22,000  Level Chicago Center
09:05PM 43.3464 -88.6000 333° Northwest 441 507 22,000  Level Chicago Center
09:06PM 43.4581 -88.6817 332° Northwest 442 509 22,000  Level Chicago Center
09:07PM 43.5672 -88.7619 332° Northwest 440 506 22,000 -540 Level Chicago Center
09:08PM 43.6747 -88.8414 332° Northwest 437 503 21,000 -1,200 Descending Chicago Center
09:09PM 43.7789 -88.9172 332° Northwest 430 495 19,600 -1,320 Descending Chicago Center
09:10PM 43.8761 -88.9897 332° Northwest 409 471 18,300 -1,440 Descending Chicago Center
09:11PM 43.9925 -89.0753 332° Northwest 397 457 16,700 -1,260 Descending Chicago Center
09:13PM 44.0956 -89.1531 332° Northwest 392 451 15,600 -1,080 Descending Minneapolis Center
09:14PM 44.1950 -89.2225 333° Northwest 386 444 14,400 -1,500 Descending Minneapolis Center
09:15PM 44.3003 -89.2469 351° North 371 427 12,600 -1,800 Descending Minneapolis Center
09:16PM 44.3986 -89.2689 351° North 350 403 10,800 -1,500 Descending Minneapolis Center
09:17PM 44.4778 -89.2878 350° North 308 354 9,600 -1,320 Descending Minneapolis Center
09:18PM 44.5564 -89.3056 351° North 278 320 8,100 -1,500 Descending Minneapolis Center
09:19PM 44.6283 -89.3222 351° North 251 289 6,500 -1,620 Descending Minneapolis Center
09:20PM 44.6958 -89.3392 350° North 237 273 4,900 -1,440 Descending Minneapolis Center
09:21PM 44.7675 -89.3558 351° North 249 287 3,600 -780 Descending Minneapolis Center
09:22PM 44.8172 -89.4006 327° Northwest 251 289 3,300 -300 Descending Minneapolis Center
09:23PM 44.8114 -89.4794 264° West 200 230 3,000 -300 Descending Minneapolis Center
09:24PM 44.8011 -89.5442 257° West 163 188 2,700 -540 Descending Minneapolis Center
09:25PM 44.7925 -89.5928 256° West 126 145 2,000 -600 Descending Minneapolis Center
09:26PM 44.7864 -89.6333 258° West 121 139 1,500 -540 Descending Minneapolis Center